Ellis, Idaho
Current Conditions -  °F | °C
As of 8:55 PM on Friday 24 Oct 2014 (Local Time) from KLLJ Reporting Station
Clear Clear  
Wind Chill: 39°   Ceiling: Unl
Heat Index: 43°   Visibility: 10mi
Dew Point: 37°   Wind: 6mph
Humidity: 80%   Direction: 330°NNW
Pressure: 30.08"   Gusts: NA
Location:  44.69°N, 114.05°W
Report Text: KLLJ 250255Z AUTO 33005KT 10SM CLR 06/03 A3008 RMK AO2 SLP175 T00610028 53006
Loading
Personal Weather Stations






























Interactive Weather Map
Tropical Storm Tracking
New forecast layout! Learn more

10-Day Weather Forecast

Advertisements
Track Severe Weather on mobile